sensor_id;sensor_type;location;lat;lon;timestamp;P1;durP1;ratioP1;P2;durP2;ratioP2
6537;SDS011;3302;52.508;13.454;2022-09-09T00:02:19;16.33;;;11.00;;
6537;SDS011;3302;52.508;13.454;2022-09-09T00:07:55;16.73;;;12.53;;
6537;SDS011;3302;52.508;13.454;2022-09-09T00:10:38;11.17;;;9.80;;
6537;SDS011;3302;52.508;13.454;2022-09-09T00:21:16;11.00;;;9.47;;
6537;SDS011;3302;52.508;13.454;2022-09-09T00:23:50;19.93;;;13.47;;
6537;SDS011;3302;52.508;13.454;2022-09-09T00:29:05;19.23;;;14.23;;
6537;SDS011;3302;52.508;13.454;2022-09-09T00:31:51;14.80;;;12.07;;
6537;SDS011;3302;52.508;13.454;2022-09-09T00:34:21;14.43;;;11.03;;
6537;SDS011;3302;52.508;13.454;2022-09-09T00:36:55;13.63;;;10.87;;
6537;SDS011;3302;52.508;13.454;2022-09-09T00:39:29;15.03;;;12.17;;
6537;SDS011;3302;52.508;13.454;2022-09-09T00:45:19;12.53;;;11.23;;
6537;SDS011;3302;52.508;13.454;2022-09-09T00:48:07;12.70;;;11.37;;
6537;SDS011;3302;52.508;13.454;2022-09-09T00:56:13;11.30;;;10.20;;
6537;SDS011;3302;52.508;13.454;2022-09-09T00:58:42;10.57;;;9.40;;
6537;SDS011;3302;52.508;13.454;2022-09-09T01:01:15;17.13;;;12.73;;
6537;SDS011;3302;52.508;13.454;2022-09-09T01:03:43;20.73;;;14.67;;
6537;SDS011;3302;52.508;13.454;2022-09-09T01:06:31;25.30;;;16.50;;
6537;SDS011;3302;52.508;13.454;2022-09-09T01:12:02;19.50;;;13.47;;
6537;SDS011;3302;52.508;13.454;2022-09-09T01:15:03;17.43;;;12.80;;
6537;SDS011;3302;52.508;13.454;2022-09-09T01:17:35;12.70;;;10.27;;
6537;SDS011;3302;52.508;13.454;2022-09-09T01:20:18;9.80;;;8.60;;
6537;SDS011;3302;52.508;13.454;2022-09-09T01:28:35;10.73;;;8.00;;
6537;SDS011;3302;52.508;13.454;2022-09-09T01:31:03;11.07;;;9.80;;
6537;SDS011;3302;52.508;13.454;2022-09-09T01:33:31;10.47;;;8.90;;
6537;SDS011;3302;52.508;13.454;2022-09-09T01:36:01;10.07;;;8.97;;
6537;SDS011;3302;52.508;13.454;2022-09-09T01:38:32;10.63;;;8.73;;
6537;SDS011;3302;52.508;13.454;2022-09-09T01:40:59;9.13;;;8.03;;
6537;SDS011;3302;52.508;13.454;2022-09-09T01:43:25;8.00;;;7.20;;
6537;SDS011;3302;52.508;13.454;2022-09-09T01:45:53;11.43;;;8.73;;
6537;SDS011;3302;52.508;13.454;2022-09-09T01:48:21;11.17;;;9.93;;
6537;SDS011;3302;52.508;13.454;2022-09-09T01:50:49;10.70;;;8.90;;
6537;SDS011;3302;52.508;13.454;2022-09-09T01:53:15;10.07;;;8.40;;
6537;SDS011;3302;52.508;13.454;2022-09-09T01:56:02;9.43;;;8.13;;
6537;SDS011;3302;52.508;13.454;2022-09-09T01:58:41;9.67;;;8.67;;
6537;SDS011;3302;52.508;13.454;2022-09-09T02:02:03;39.43;;;22.73;;
6537;SDS011;3302;52.508;13.454;2022-09-09T02:06:47;16.87;;;12.20;;
6537;SDS011;3302;52.508;13.454;2022-09-09T02:09:15;14.53;;;10.73;;
6537;SDS011;3302;52.508;13.454;2022-09-09T02:11:46;10.63;;;9.53;;
6537;SDS011;3302;52.508;13.454;2022-09-09T02:14:16;15.13;;;10.43;;
6537;SDS011;3302;52.508;13.454;2022-09-09T02:17:03;10.47;;;8.40;;
6537;SDS011;3302;52.508;13.454;2022-09-09T02:19:45;10.47;;;9.37;;
6537;SDS011;3302;52.508;13.454;2022-09-09T02:22:16;8.47;;;7.67;;
6537;SDS011;3302;52.508;13.454;2022-09-09T02:24:45;9.00;;;8.10;;
6537;SDS011;3302;52.508;13.454;2022-09-09T02:27:12;8.63;;;7.33;;
6537;SDS011;3302;52.508;13.454;2022-09-09T02:29:40;7.33;;;6.63;;
6537;SDS011;3302;52.508;13.454;2022-09-09T02:32:21;7.37;;;6.77;;
6537;SDS011;3302;52.508;13.454;2022-09-09T02:34:49;7.50;;;6.80;;
6537;SDS011;3302;52.508;13.454;2022-09-09T02:37:19;7.40;;;6.40;;
6537;SDS011;3302;52.508;13.454;2022-09-09T02:39:48;7.77;;;6.87;;
6537;SDS011;3302;52.508;13.454;2022-09-09T02:42:14;10.97;;;8.43;;
6537;SDS011;3302;52.508;13.454;2022-09-09T02:44:40;8.73;;;6.90;;
6537;SDS011;3302;52.508;13.454;2022-09-09T02:55:29;8.50;;;7.70;;
6537;SDS011;3302;52.508;13.454;2022-09-09T02:58:03;8.90;;;7.10;;
6537;SDS011;3302;52.508;13.454;2022-09-09T03:00:32;7.57;;;6.67;;
6537;SDS011;3302;52.508;13.454;2022-09-09T03:02:58;6.57;;;5.87;;
6537;SDS011;3302;52.508;13.454;2022-09-09T03:05:23;6.87;;;6.27;;
6537;SDS011;3302;52.508;13.454;2022-09-09T03:07:50;7.23;;;6.17;;
6537;SDS011;3302;52.508;13.454;2022-09-09T03:10:16;7.57;;;6.40;;
6537;SDS011;3302;52.508;13.454;2022-09-09T03:12:42;8.47;;;7.63;;
6537;SDS011;3302;52.508;13.454;2022-09-09T03:15:08;9.20;;;7.30;;
6537;SDS011;3302;52.508;13.454;2022-09-09T03:17:35;7.70;;;6.77;;
6537;SDS011;3302;52.508;13.454;2022-09-09T03:20:04;6.93;;;6.13;;
6537;SDS011;3302;52.508;13.454;2022-09-09T03:22:30;6.73;;;6.13;;
6537;SDS011;3302;52.508;13.454;2022-09-09T03:24:56;7.43;;;6.63;;
6537;SDS011;3302;52.508;13.454;2022-09-09T03:27:22;7.70;;;6.80;;
6537;SDS011;3302;52.508;13.454;2022-09-09T03:29:47;7.80;;;6.90;;
6537;SDS011;3302;52.508;13.454;2022-09-09T03:32:16;8.10;;;7.13;;
6537;SDS011;3302;52.508;13.454;2022-09-09T03:34:42;7.33;;;5.80;;
6537;SDS011;3302;52.508;13.454;2022-09-09T03:37:09;5.90;;;5.40;;
6537;SDS011;3302;52.508;13.454;2022-09-09T03:39:34;6.00;;;5.50;;
6537;SDS011;3302;52.508;13.454;2022-09-09T03:42:00;5.43;;;4.93;;
6537;SDS011;3302;52.508;13.454;2022-09-09T03:44:29;5.23;;;4.73;;
6537;SDS011;3302;52.508;13.454;2022-09-09T03:46:55;5.73;;;5.23;;
6537;SDS011;3302;52.508;13.454;2022-09-09T03:49:21;6.27;;;5.40;;
6537;SDS011;3302;52.508;13.454;2022-09-09T03:51:47;5.83;;;5.10;;
6537;SDS011;3302;52.508;13.454;2022-09-09T03:54:13;5.67;;;4.93;;
6537;SDS011;3302;52.508;13.454;2022-09-09T03:56:39;5.30;;;4.80;;
6537;SDS011;3302;52.508;13.454;2022-09-09T03:59:06;5.93;;;5.17;;
6537;SDS011;3302;52.508;13.454;2022-09-09T04:01:34;6.33;;;5.30;;
6537;SDS011;3302;52.508;13.454;2022-09-09T04:04:00;6.80;;;5.30;;
6537;SDS011;3302;52.508;13.454;2022-09-09T04:06:27;5.57;;;5.00;;
6537;SDS011;3302;52.508;13.454;2022-09-09T04:08:53;6.63;;;6.00;;
6537;SDS011;3302;52.508;13.454;2022-09-09T04:11:20;6.87;;;6.20;;
6537;SDS011;3302;52.508;13.454;2022-09-09T04:13:46;7.70;;;5.73;;
6537;SDS011;3302;52.508;13.454;2022-09-09T04:16:12;6.30;;;5.43;;
6537;SDS011;3302;52.508;13.454;2022-09-09T04:18:40;5.37;;;4.87;;
6537;SDS011;3302;52.508;13.454;2022-09-09T04:21:08;6.37;;;5.73;;
6537;SDS011;3302;52.508;13.454;2022-09-09T04:23:35;5.90;;;5.37;;
6537;SDS011;3302;52.508;13.454;2022-09-09T04:26:01;5.60;;;5.10;;
6537;SDS011;3302;52.508;13.454;2022-09-09T04:28:29;6.00;;;5.37;;
6537;SDS011;3302;52.508;13.454;2022-09-09T04:30:56;7.23;;;5.60;;
6537;SDS011;3302;52.508;13.454;2022-09-09T04:33:28;7.97;;;6.20;;
6537;SDS011;3302;52.508;13.454;2022-09-09T04:35:55;7.00;;;6.03;;
6537;SDS011;3302;52.508;13.454;2022-09-09T04:38:20;7.70;;;6.20;;
6537;SDS011;3302;52.508;13.454;2022-09-09T04:40:48;6.50;;;5.77;;
6537;SDS011;3302;52.508;13.454;2022-09-09T04:43:16;5.53;;;5.03;;
6537;SDS011;3302;52.508;13.454;2022-09-09T04:45:46;6.37;;;5.77;;
6537;SDS011;3302;52.508;13.454;2022-09-09T04:48:13;6.33;;;5.63;;
6537;SDS011;3302;52.508;13.454;2022-09-09T04:50:38;6.47;;;5.17;;
6537;SDS011;3302;52.508;13.454;2022-09-09T04:53:05;5.87;;;4.90;;
6537;SDS011;3302;52.508;13.454;2022-09-09T04:55:31;4.73;;;4.33;;
6537;SDS011;3302;52.508;13.454;2022-09-09T04:58:03;6.23;;;4.43;;
6537;SDS011;3302;52.508;13.454;2022-09-09T05:00:34;5.20;;;4.47;;
6537;SDS011;3302;52.508;13.454;2022-09-09T05:03:04;6.23;;;4.80;;
6537;SDS011;3302;52.508;13.454;2022-09-09T05:05:31;6.07;;;4.50;;
6537;SDS011;3302;52.508;13.454;2022-09-09T05:08:02;7.67;;;5.00;;
6537;SDS011;3302;52.508;13.454;2022-09-09T05:10:29;6.13;;;4.47;;
6537;SDS011;3302;52.508;13.454;2022-09-09T05:12:55;6.33;;;4.30;;
6537;SDS011;3302;52.508;13.454;2022-09-09T05:15:21;5.80;;;4.47;;
6537;SDS011;3302;52.508;13.454;2022-09-09T05:17:47;8.53;;;5.13;;
6537;SDS011;3302;52.508;13.454;2022-09-09T05:20:13;6.37;;;4.50;;
6537;SDS011;3302;52.508;13.454;2022-09-09T05:22:39;4.37;;;3.97;;
6537;SDS011;3302;52.508;13.454;2022-09-09T05:25:05;4.80;;;3.93;;
6537;SDS011;3302;52.508;13.454;2022-09-09T05:27:35;4.50;;;4.07;;
6537;SDS011;3302;52.508;13.454;2022-09-09T05:30:03;5.77;;;4.00;;
6537;SDS011;3302;52.508;13.454;2022-09-09T05:32:30;5.70;;;4.30;;
6537;SDS011;3302;52.508;13.454;2022-09-09T05:34:59;6.30;;;4.20;;
6537;SDS011;3302;52.508;13.454;2022-09-09T05:37:25;7.70;;;4.50;;
6537;SDS011;3302;52.508;13.454;2022-09-09T05:39:50;7.37;;;4.80;;
6537;SDS011;3302;52.508;13.454;2022-09-09T05:42:16;5.57;;;4.00;;
6537;SDS011;3302;52.508;13.454;2022-09-09T05:44:42;5.30;;;3.90;;
6537;SDS011;3302;52.508;13.454;2022-09-09T05:47:08;5.43;;;4.23;;
6537;SDS011;3302;52.508;13.454;2022-09-09T05:49:34;5.33;;;3.80;;
6537;SDS011;3302;52.508;13.454;2022-09-09T05:52:00;5.63;;;3.90;;
6537;SDS011;3302;52.508;13.454;2022-09-09T05:54:26;5.93;;;4.47;;
6537;SDS011;3302;52.508;13.454;2022-09-09T05:56:52;4.60;;;4.00;;
6537;SDS011;3302;52.508;13.454;2022-09-09T05:59:18;4.73;;;4.20;;
6537;SDS011;3302;52.508;13.454;2022-09-09T06:01:44;5.43;;;4.00;;
6537;SDS011;3302;52.508;13.454;2022-09-09T06:04:10;4.10;;;3.70;;
6537;SDS011;3302;52.508;13.454;2022-09-09T06:06:37;8.20;;;3.87;;
6537;SDS011;3302;52.508;13.454;2022-09-09T06:09:05;7.73;;;4.03;;
6537;SDS011;3302;52.508;13.454;2022-09-09T06:11:35;3.93;;;3.33;;
6537;SDS011;3302;52.508;13.454;2022-09-09T06:14:03;5.17;;;2.90;;
6537;SDS011;3302;52.508;13.454;2022-09-09T06:16:30;4.47;;;3.00;;
6537;SDS011;3302;52.508;13.454;2022-09-09T06:18:59;3.77;;;2.87;;
6537;SDS011;3302;52.508;13.454;2022-09-09T06:21:32;3.40;;;3.07;;
6537;SDS011;3302;52.508;13.454;2022-09-09T06:24:01;3.53;;;3.10;;
6537;SDS011;3302;52.508;13.454;2022-09-09T06:26:34;3.90;;;3.00;;
6537;SDS011;3302;52.508;13.454;2022-09-09T06:29:06;2.90;;;2.67;;
6537;SDS011;3302;52.508;13.454;2022-09-09T06:31:32;5.13;;;2.83;;
6537;SDS011;3302;52.508;13.454;2022-09-09T06:33:59;3.83;;;2.63;;
6537;SDS011;3302;52.508;13.454;2022-09-09T06:36:29;4.80;;;3.20;;
6537;SDS011;3302;52.508;13.454;2022-09-09T06:38:57;4.77;;;2.73;;
6537;SDS011;3302;52.508;13.454;2022-09-09T06:41:24;4.10;;;2.70;;
6537;SDS011;3302;52.508;13.454;2022-09-09T06:43:54;4.10;;;2.80;;
6537;SDS011;3302;52.508;13.454;2022-09-09T06:46:23;7.77;;;2.83;;
6537;SDS011;3302;52.508;13.454;2022-09-09T06:48:53;4.33;;;3.00;;
6537;SDS011;3302;52.508;13.454;2022-09-09T06:51:24;5.00;;;2.90;;
6537;SDS011;3302;52.508;13.454;2022-09-09T06:53:53;4.40;;;3.07;;
6537;SDS011;3302;52.508;13.454;2022-09-09T06:56:25;4.37;;;2.90;;
6537;SDS011;3302;52.508;13.454;2022-09-09T06:58:53;5.43;;;3.03;;
6537;SDS011;3302;52.508;13.454;2022-09-09T07:01:22;3.27;;;2.67;;
6537;SDS011;3302;52.508;13.454;2022-09-09T07:03:50;4.53;;;2.90;;
6537;SDS011;3302;52.508;13.454;2022-09-09T07:06:18;4.67;;;2.50;;
6537;SDS011;3302;52.508;13.454;2022-09-09T07:08:52;3.30;;;2.30;;
6537;SDS011;3302;52.508;13.454;2022-09-09T07:11:23;7.13;;;2.57;;
6537;SDS011;3302;52.508;13.454;2022-09-09T07:13:52;2.77;;;2.47;;
6537;SDS011;3302;52.508;13.454;2022-09-09T07:16:19;4.53;;;2.37;;
6537;SDS011;3302;52.508;13.454;2022-09-09T07:18:46;4.93;;;2.93;;
6537;SDS011;3302;52.508;13.454;2022-09-09T07:21:13;3.23;;;2.20;;
6537;SDS011;3302;52.508;13.454;2022-09-09T07:23:40;2.90;;;2.07;;
6537;SDS011;3302;52.508;13.454;2022-09-09T07:26:10;6.10;;;2.67;;
6537;SDS011;3302;52.508;13.454;2022-09-09T07:28:38;2.87;;;2.30;;
6537;SDS011;3302;52.508;13.454;2022-09-09T07:31:06;4.00;;;2.40;;
6537;SDS011;3302;52.508;13.454;2022-09-09T07:33:33;3.73;;;2.30;;
6537;SDS011;3302;52.508;13.454;2022-09-09T07:36:04;2.50;;;2.00;;
6537;SDS011;3302;52.508;13.454;2022-09-09T07:38:36;4.33;;;2.17;;
6537;SDS011;3302;52.508;13.454;2022-09-09T07:41:07;4.13;;;2.10;;
6537;SDS011;3302;52.508;13.454;2022-09-09T07:43:39;3.33;;;2.17;;
6537;SDS011;3302;52.508;13.454;2022-09-09T07:46:07;3.33;;;2.70;;
6537;SDS011;3302;52.508;13.454;2022-09-09T07:48:34;3.83;;;2.10;;
6537;SDS011;3302;52.508;13.454;2022-09-09T07:51:07;5.57;;;2.70;;
6537;SDS011;3302;52.508;13.454;2022-09-09T07:53:36;3.60;;;2.20;;
6537;SDS011;3302;52.508;13.454;2022-09-09T07:56:06;4.73;;;2.23;;
6537;SDS011;3302;52.508;13.454;2022-09-09T07:58:37;5.07;;;2.30;;
6537;SDS011;3302;52.508;13.454;2022-09-09T08:01:11;4.10;;;2.00;;
6537;SDS011;3302;52.508;13.454;2022-09-09T08:03:39;5.33;;;3.93;;
6537;SDS011;3302;52.508;13.454;2022-09-09T08:06:05;6.43;;;2.20;;
6537;SDS011;3302;52.508;13.454;2022-09-09T08:08:32;2.63;;;2.00;;
6537;SDS011;3302;52.508;13.454;2022-09-09T08:11:03;4.40;;;2.10;;
6537;SDS011;3302;52.508;13.454;2022-09-09T08:13:37;4.53;;;2.20;;
6537;SDS011;3302;52.508;13.454;2022-09-09T08:16:05;3.57;;;2.40;;
6537;SDS011;3302;52.508;13.454;2022-09-09T08:18:36;5.00;;;2.20;;
6537;SDS011;3302;52.508;13.454;2022-09-09T08:23:34;4.03;;;2.50;;
6537;SDS011;3302;52.508;13.454;2022-09-09T08:26:04;7.13;;;2.43;;
6537;SDS011;3302;52.508;13.454;2022-09-09T08:28:31;4.13;;;2.23;;
6537;SDS011;3302;52.508;13.454;2022-09-09T08:31:04;3.77;;;2.17;;
6537;SDS011;3302;52.508;13.454;2022-09-09T08:33:41;3.13;;;2.00;;
6537;SDS011;3302;52.508;13.454;2022-09-09T08:36:11;5.63;;;2.43;;
6537;SDS011;3302;52.508;13.454;2022-09-09T08:38:40;3.77;;;2.03;;
6537;SDS011;3302;52.508;13.454;2022-09-09T08:41:17;3.43;;;2.20;;
6537;SDS011;3302;52.508;13.454;2022-09-09T08:52:23;2.27;;;1.83;;
6537;SDS011;3302;52.508;13.454;2022-09-09T08:54:55;2.97;;;1.90;;
6537;SDS011;3302;52.508;13.454;2022-09-09T08:57:28;3.23;;;1.77;;
6537;SDS011;3302;52.508;13.454;2022-09-09T08:59:56;3.83;;;2.00;;
6537;SDS011;3302;52.508;13.454;2022-09-09T09:02:25;3.23;;;2.00;;
6537;SDS011;3302;52.508;13.454;2022-09-09T09:05:06;3.83;;;2.00;;
6537;SDS011;3302;52.508;13.454;2022-09-09T09:07:47;4.37;;;2.17;;
6537;SDS011;3302;52.508;13.454;2022-09-09T09:10:28;2.10;;;1.67;;
6537;SDS011;3302;52.508;13.454;2022-09-09T09:13:23;3.43;;;1.83;;
6537;SDS011;3302;52.508;13.454;2022-09-09T09:16:09;4.83;;;2.43;;
6537;SDS011;3302;52.508;13.454;2022-09-09T09:19:08;4.77;;;2.53;;
6537;SDS011;3302;52.508;13.454;2022-09-09T09:21:41;4.67;;;2.27;;
6537;SDS011;3302;52.508;13.454;2022-09-09T09:24:19;3.23;;;2.07;;
6537;SDS011;3302;52.508;13.454;2022-09-09T09:26:49;3.87;;;2.20;;
6537;SDS011;3302;52.508;13.454;2022-09-09T09:29:16;3.03;;;1.90;;
6537;SDS011;3302;52.508;13.454;2022-09-09T09:31:48;5.53;;;2.30;;
6537;SDS011;3302;52.508;13.454;2022-09-09T09:34:19;4.33;;;2.30;;
6537;SDS011;3302;52.508;13.454;2022-09-09T09:36:52;6.00;;;3.77;;
6537;SDS011;3302;52.508;13.454;2022-09-09T09:39:25;2.83;;;2.30;;
6537;SDS011;3302;52.508;13.454;2022-09-09T09:42:09;3.53;;;2.23;;
6537;SDS011;3302;52.508;13.454;2022-09-09T09:44:40;6.37;;;2.10;;
6537;SDS011;3302;52.508;13.454;2022-09-09T09:47:08;3.20;;;1.80;;
6537;SDS011;3302;52.508;13.454;2022-09-09T09:49:37;4.43;;;1.90;;
6537;SDS011;3302;52.508;13.454;2022-09-09T09:52:03;3.80;;;1.90;;
6537;SDS011;3302;52.508;13.454;2022-09-09T09:54:32;3.33;;;2.00;;
6537;SDS011;3302;52.508;13.454;2022-09-09T09:57:13;4.20;;;2.40;;
6537;SDS011;3302;52.508;13.454;2022-09-09T09:59:41;3.20;;;2.00;;
6537;SDS011;3302;52.508;13.454;2022-09-09T10:02:24;3.80;;;1.90;;
6537;SDS011;3302;52.508;13.454;2022-09-09T10:08:04;2.10;;;1.80;;
6537;SDS011;3302;52.508;13.454;2022-09-09T10:16:31;4.17;;;2.20;;
6537;SDS011;3302;52.508;13.454;2022-09-09T10:19:34;4.07;;;2.30;;
6537;SDS011;3302;52.508;13.454;2022-09-09T10:30:24;3.17;;;1.87;;
6537;SDS011;3302;52.508;13.454;2022-09-09T10:33:10;2.97;;;1.80;;
6537;SDS011;3302;52.508;13.454;2022-09-09T10:36:11;4.27;;;1.80;;
6537;SDS011;3302;52.508;13.454;2022-09-09T10:41:53;3.90;;;1.70;;
6537;SDS011;3302;52.508;13.454;2022-09-09T10:56:30;2.80;;;1.67;;
6537;SDS011;3302;52.508;13.454;2022-09-09T11:01:44;2.10;;;1.30;;
6537;SDS011;3302;52.508;13.454;2022-09-09T11:04:32;3.73;;;2.53;;
6537;SDS011;3302;52.508;13.454;2022-09-09T11:07:22;4.60;;;1.90;;
6537;SDS011;3302;52.508;13.454;2022-09-09T11:09:59;2.63;;;1.63;;
6537;SDS011;3302;52.508;13.454;2022-09-09T11:12:31;6.30;;;2.10;;
6537;SDS011;3302;52.508;13.454;2022-09-09T11:15:06;3.27;;;1.63;;
6537;SDS011;3302;52.508;13.454;2022-09-09T11:17:40;4.53;;;1.80;;
6537;SDS011;3302;52.508;13.454;2022-09-09T11:20:12;4.10;;;1.60;;
6537;SDS011;3302;52.508;13.454;2022-09-09T11:22:43;4.57;;;1.63;;
6537;SDS011;3302;52.508;13.454;2022-09-09T11:25:21;2.20;;;1.60;;
6537;SDS011;3302;52.508;13.454;2022-09-09T11:27:58;3.33;;;1.60;;
6537;SDS011;3302;52.508;13.454;2022-09-09T11:36:13;3.03;;;1.70;;
6537;SDS011;3302;52.508;13.454;2022-09-09T11:39:34;2.67;;;1.50;;
6537;SDS011;3302;52.508;13.454;2022-09-09T11:44:41;3.93;;;1.60;;
6537;SDS011;3302;52.508;13.454;2022-09-09T11:52:41;2.47;;;1.50;;
6537;SDS011;3302;52.508;13.454;2022-09-09T11:55:33;1.80;;;1.40;;
6537;SDS011;3302;52.508;13.454;2022-09-09T11:58:05;2.27;;;1.70;;
6537;SDS011;3302;52.508;13.454;2022-09-09T12:00:35;4.50;;;1.90;;
6537;SDS011;3302;52.508;13.454;2022-09-09T12:03:02;3.60;;;1.80;;
6537;SDS011;3302;52.508;13.454;2022-09-09T12:05:51;3.30;;;1.53;;
6537;SDS011;3302;52.508;13.454;2022-09-09T12:08:20;3.70;;;1.70;;
6537;SDS011;3302;52.508;13.454;2022-09-09T12:10:58;3.90;;;1.90;;
6537;SDS011;3302;52.508;13.454;2022-09-09T12:13:28;2.63;;;1.53;;
6537;SDS011;3302;52.508;13.454;2022-09-09T12:15:57;4.80;;;1.80;;
6537;SDS011;3302;52.508;13.454;2022-09-09T12:24:10;3.73;;;1.40;;
6537;SDS011;3302;52.508;13.454;2022-09-09T12:26:42;2.67;;;1.53;;
6537;SDS011;3302;52.508;13.454;2022-09-09T12:31:59;3.93;;;1.70;;
6537;SDS011;3302;52.508;13.454;2022-09-09T12:37:19;2.97;;;1.50;;
6537;SDS011;3302;52.508;13.454;2022-09-09T12:42:47;4.03;;;1.43;;
6537;SDS011;3302;52.508;13.454;2022-09-09T12:45:17;4.70;;;1.70;;
6537;SDS011;3302;52.508;13.454;2022-09-09T12:47:47;1.97;;;1.40;;
6537;SDS011;3302;52.508;13.454;2022-09-09T12:50:21;2.33;;;1.30;;
6537;SDS011;3302;52.508;13.454;2022-09-09T12:52:50;2.43;;;1.30;;
6537;SDS011;3302;52.508;13.454;2022-09-09T12:55:27;3.00;;;1.53;;
6537;SDS011;3302;52.508;13.454;2022-09-09T12:57:56;1.50;;;1.20;;
6537;SDS011;3302;52.508;13.454;2022-09-09T13:00:24;3.07;;;1.47;;
6537;SDS011;3302;52.508;13.454;2022-09-09T13:02:52;1.70;;;1.20;;
6537;SDS011;3302;52.508;13.454;2022-09-09T13:05:24;4.23;;;1.63;;
6537;SDS011;3302;52.508;13.454;2022-09-09T13:07:51;2.43;;;1.37;;
6537;SDS011;3302;52.508;13.454;2022-09-09T13:10:27;2.53;;;1.47;;
6537;SDS011;3302;52.508;13.454;2022-09-09T13:12:56;2.73;;;1.73;;
6537;SDS011;3302;52.508;13.454;2022-09-09T13:15:24;2.53;;;1.50;;
6537;SDS011;3302;52.508;13.454;2022-09-09T13:18:05;3.10;;;1.60;;
6537;SDS011;3302;52.508;13.454;2022-09-09T13:20:36;3.50;;;1.83;;
6537;SDS011;3302;52.508;13.454;2022-09-09T13:23:02;2.33;;;1.47;;
6537;SDS011;3302;52.508;13.454;2022-09-09T13:25:28;1.90;;;1.40;;
6537;SDS011;3302;52.508;13.454;2022-09-09T13:28:01;3.67;;;1.60;;
6537;SDS011;3302;52.508;13.454;2022-09-09T13:30:30;3.43;;;1.63;;
6537;SDS011;3302;52.508;13.454;2022-09-09T13:33:19;3.23;;;1.53;;
6537;SDS011;3302;52.508;13.454;2022-09-09T13:35:54;4.43;;;2.30;;
6537;SDS011;3302;52.508;13.454;2022-09-09T13:38:23;2.63;;;1.93;;
6537;SDS011;3302;52.508;13.454;2022-09-09T13:41:06;2.30;;;1.33;;
6537;SDS011;3302;52.508;13.454;2022-09-09T13:43:44;2.33;;;1.40;;
6537;SDS011;3302;52.508;13.454;2022-09-09T13:49:00;1.83;;;1.30;;
6537;SDS011;3302;52.508;13.454;2022-09-09T13:54:04;2.93;;;1.60;;
6537;SDS011;3302;52.508;13.454;2022-09-09T13:56:34;2.77;;;1.40;;
6537;SDS011;3302;52.508;13.454;2022-09-09T13:59:03;4.43;;;1.80;;
6537;SDS011;3302;52.508;13.454;2022-09-09T14:01:29;3.63;;;1.53;;
6537;SDS011;3302;52.508;13.454;2022-09-09T14:03:56;4.27;;;2.10;;
6537;SDS011;3302;52.508;13.454;2022-09-09T14:06:22;3.80;;;2.37;;
6537;SDS011;3302;52.508;13.454;2022-09-09T14:08:49;2.57;;;1.40;;
6537;SDS011;3302;52.508;13.454;2022-09-09T14:11:16;4.13;;;1.50;;
6537;SDS011;3302;52.508;13.454;2022-09-09T14:13:42;5.60;;;1.73;;
6537;SDS011;3302;52.508;13.454;2022-09-09T14:16:09;4.33;;;1.77;;
6537;SDS011;3302;52.508;13.454;2022-09-09T14:18:34;6.13;;;1.63;;
6537;SDS011;3302;52.508;13.454;2022-09-09T14:21:00;2.70;;;1.70;;
6537;SDS011;3302;52.508;13.454;2022-09-09T14:23:28;3.57;;;1.50;;
6537;SDS011;3302;52.508;13.454;2022-09-09T14:25:55;3.07;;;1.60;;
6537;SDS011;3302;52.508;13.454;2022-09-09T14:28:21;2.80;;;1.60;;
6537;SDS011;3302;52.508;13.454;2022-09-09T14:30:47;3.03;;;1.80;;
6537;SDS011;3302;52.508;13.454;2022-09-09T14:33:14;3.53;;;1.50;;
6537;SDS011;3302;52.508;13.454;2022-09-09T14:35:41;2.90;;;1.33;;
6537;SDS011;3302;52.508;13.454;2022-09-09T14:38:07;1.93;;;1.50;;
6537;SDS011;3302;52.508;13.454;2022-09-09T14:40:34;3.23;;;1.90;;
6537;SDS011;3302;52.508;13.454;2022-09-09T14:43:01;4.63;;;1.80;;
6537;SDS011;3302;52.508;13.454;2022-09-09T14:45:27;2.57;;;1.63;;
6537;SDS011;3302;52.508;13.454;2022-09-09T14:47:53;2.13;;;1.23;;
6537;SDS011;3302;52.508;13.454;2022-09-09T14:50:20;3.97;;;1.77;;
6537;SDS011;3302;52.508;13.454;2022-09-09T14:52:47;5.03;;;2.00;;
6537;SDS011;3302;52.508;13.454;2022-09-09T14:55:13;2.00;;;1.80;;
6537;SDS011;3302;52.508;13.454;2022-09-09T14:57:39;3.80;;;2.20;;
6537;SDS011;3302;52.508;13.454;2022-09-09T15:00:05;3.10;;;1.70;;
6537;SDS011;3302;52.508;13.454;2022-09-09T15:02:32;3.70;;;1.70;;
6537;SDS011;3302;52.508;13.454;2022-09-09T15:04:58;4.07;;;2.73;;
6537;SDS011;3302;52.508;13.454;2022-09-09T15:07:24;4.40;;;1.90;;
6537;SDS011;3302;52.508;13.454;2022-09-09T15:09:52;5.17;;;2.00;;
6537;SDS011;3302;52.508;13.454;2022-09-09T15:12:18;2.70;;;1.73;;
6537;SDS011;3302;52.508;13.454;2022-09-09T15:14:45;2.93;;;1.70;;
6537;SDS011;3302;52.508;13.454;2022-09-09T15:17:11;2.63;;;2.20;;
6537;SDS011;3302;52.508;13.454;2022-09-09T15:19:37;4.43;;;1.60;;
6537;SDS011;3302;52.508;13.454;2022-09-09T15:22:04;3.67;;;1.90;;
6537;SDS011;3302;52.508;13.454;2022-09-09T15:24:31;3.77;;;2.40;;
6537;SDS011;3302;52.508;13.454;2022-09-09T15:26:57;2.80;;;1.80;;
6537;SDS011;3302;52.508;13.454;2022-09-09T15:29:23;3.33;;;1.70;;
6537;SDS011;3302;52.508;13.454;2022-09-09T15:31:49;5.90;;;1.73;;
6537;SDS011;3302;52.508;13.454;2022-09-09T15:34:15;2.87;;;1.73;;
6537;SDS011;3302;52.508;13.454;2022-09-09T15:36:42;2.43;;;1.50;;
6537;SDS011;3302;52.508;13.454;2022-09-09T15:39:09;2.40;;;1.20;;
6537;SDS011;3302;52.508;13.454;2022-09-09T15:41:38;3.13;;;1.90;;
6537;SDS011;3302;52.508;13.454;2022-09-09T15:44:04;2.63;;;1.63;;
6537;SDS011;3302;52.508;13.454;2022-09-09T15:46:38;2.10;;;1.60;;
6537;SDS011;3302;52.508;13.454;2022-09-09T15:49:16;2.60;;;1.70;;
6537;SDS011;3302;52.508;13.454;2022-09-09T15:51:44;3.13;;;1.97;;
6537;SDS011;3302;52.508;13.454;2022-09-09T15:54:12;4.03;;;1.90;;
6537;SDS011;3302;52.508;13.454;2022-09-09T15:56:41;2.37;;;1.90;;
6537;SDS011;3302;52.508;13.454;2022-09-09T15:59:07;3.87;;;1.80;;
6537;SDS011;3302;52.508;13.454;2022-09-09T16:01:33;4.43;;;2.20;;
6537;SDS011;3302;52.508;13.454;2022-09-09T16:04:00;4.70;;;2.33;;
6537;SDS011;3302;52.508;13.454;2022-09-09T16:06:27;2.80;;;1.93;;
6537;SDS011;3302;52.508;13.454;2022-09-09T16:08:54;4.10;;;1.77;;
6537;SDS011;3302;52.508;13.454;2022-09-09T16:11:23;3.10;;;2.10;;
6537;SDS011;3302;52.508;13.454;2022-09-09T16:13:51;4.50;;;1.90;;
6537;SDS011;3302;52.508;13.454;2022-09-09T16:16:19;5.37;;;1.90;;
6537;SDS011;3302;52.508;13.454;2022-09-09T16:18:48;6.33;;;2.60;;
6537;SDS011;3302;52.508;13.454;2022-09-09T16:21:25;5.47;;;2.70;;
6537;SDS011;3302;52.508;13.454;2022-09-09T16:24:00;3.67;;;2.50;;
6537;SDS011;3302;52.508;13.454;2022-09-09T16:26:31;3.70;;;1.87;;
6537;SDS011;3302;52.508;13.454;2022-09-09T16:28:58;3.13;;;1.90;;
6537;SDS011;3302;52.508;13.454;2022-09-09T16:31:25;4.70;;;1.93;;
6537;SDS011;3302;52.508;13.454;2022-09-09T16:33:52;4.83;;;2.00;;
6537;SDS011;3302;52.508;13.454;2022-09-09T16:36:25;5.07;;;2.13;;
6537;SDS011;3302;52.508;13.454;2022-09-09T16:38:52;3.17;;;2.27;;
6537;SDS011;3302;52.508;13.454;2022-09-09T16:41:20;4.47;;;1.80;;
6537;SDS011;3302;52.508;13.454;2022-09-09T16:43:46;3.23;;;2.00;;
6537;SDS011;3302;52.508;13.454;2022-09-09T16:46:13;3.60;;;2.17;;
6537;SDS011;3302;52.508;13.454;2022-09-09T16:48:42;5.77;;;2.10;;
6537;SDS011;3302;52.508;13.454;2022-09-09T16:51:12;5.40;;;2.60;;
6537;SDS011;3302;52.508;13.454;2022-09-09T16:53:43;3.70;;;2.30;;
6537;SDS011;3302;52.508;13.454;2022-09-09T16:56:10;4.83;;;1.90;;
6537;SDS011;3302;52.508;13.454;2022-09-09T16:58:41;3.17;;;2.27;;
6537;SDS011;3302;52.508;13.454;2022-09-09T17:01:11;3.10;;;1.63;;
6537;SDS011;3302;52.508;13.454;2022-09-09T17:03:39;2.87;;;1.90;;
6537;SDS011;3302;52.508;13.454;2022-09-09T17:06:08;3.80;;;2.30;;
6537;SDS011;3302;52.508;13.454;2022-09-09T17:08:36;6.03;;;2.53;;
6537;SDS011;3302;52.508;13.454;2022-09-09T17:11:07;4.40;;;2.60;;
6537;SDS011;3302;52.508;13.454;2022-09-09T17:13:39;4.30;;;2.00;;
6537;SDS011;3302;52.508;13.454;2022-09-09T17:16:05;3.70;;;2.00;;
6537;SDS011;3302;52.508;13.454;2022-09-09T17:18:32;3.43;;;1.97;;
6537;SDS011;3302;52.508;13.454;2022-09-09T17:21:02;3.53;;;2.13;;
6537;SDS011;3302;52.508;13.454;2022-09-09T17:23:29;4.90;;;1.80;;